createdAt,value
2023-02-11T00:01:36.498Z,98020.97
2023-02-11T00:04:05.142Z,98028.78
2023-02-11T00:06:33.226Z,98023.97
2023-02-11T00:09:00.049Z,98023.22
2023-02-11T00:11:31.243Z,98028.50
2023-02-11T00:14:00.341Z,98023.34
2023-02-11T00:16:27.384Z,98026.72
2023-02-11T00:18:54.113Z,98026.91
2023-02-11T00:21:24.573Z,98031.25
2023-02-11T00:23:51.479Z,98035.59
2023-02-11T00:26:20.563Z,98027.91
2023-02-11T00:28:48.631Z,98028.88
2023-02-11T00:31:17.126Z,98030.59
2023-02-11T00:33:44.252Z,98029.97
2023-02-11T00:36:15.025Z,98022.34
2023-02-11T00:38:46.394Z,98030.91
2023-02-11T00:41:14.600Z,98031.09
2023-02-11T00:43:41.403Z,98016.75
2023-02-11T00:46:08.588Z,98017.69
2023-02-11T00:48:36.901Z,98033.03
2023-02-11T00:51:04.142Z,98026.13
2023-02-11T00:53:31.650Z,98023.69
2023-02-11T00:55:58.413Z,98022.09
2023-02-11T00:58:24.778Z,98028.19
2023-02-11T01:00:51.440Z,98037.25
2023-02-11T01:03:18.290Z,98030.41
2023-02-11T01:05:44.707Z,98029.56
2023-02-11T01:08:11.060Z,98029.66
2023-02-11T01:10:38.035Z,98027.25
2023-02-11T01:13:06.406Z,98034.41
2023-02-11T01:15:33.359Z,98034.50
2023-02-11T01:18:00.132Z,98018.91
2023-02-11T01:20:28.010Z,98007.81
2023-02-11T01:22:54.334Z,98007.50
2023-02-11T01:25:21.067Z,97997.19
2023-02-11T01:27:47.406Z,97993.16
2023-02-11T01:30:14.299Z,97994.56
2023-02-11T01:32:41.124Z,97997.69
2023-02-11T01:35:07.865Z,97987.00
2023-02-11T01:37:34.560Z,97989.75
2023-02-11T01:40:12.555Z,97994.91
2023-02-11T01:42:38.918Z,98001.72
2023-02-11T01:45:43.467Z,97994.78
2023-02-11T01:48:13.085Z,97998.09
2023-02-11T01:50:41.372Z,97983.34
2023-02-11T01:53:29.019Z,97982.13
2023-02-11T01:56:15.171Z,97973.22
2023-02-11T01:58:44.574Z,97962.72
2023-02-11T02:01:15.844Z,97946.13
2023-02-11T02:03:45.795Z,97942.66
2023-02-11T02:06:51.155Z,97930.13
2023-02-11T02:09:27.134Z,97927.63
2023-02-11T02:11:53.780Z,97932.81
2023-02-11T02:14:20.299Z,97929.41
2023-02-11T02:16:47.275Z,97934.72
2023-02-11T02:19:50.949Z,97937.91
2023-02-11T02:23:04.111Z,97924.22
2023-02-11T02:25:54.230Z,97928.78
2023-02-11T02:28:54.667Z,97935.84
2023-02-11T02:31:53.860Z,97942.91
2023-02-11T02:34:34.888Z,97942.25
2023-02-11T02:37:10.146Z,97944.94
2023-02-11T02:39:37.812Z,97949.91
2023-02-11T02:42:05.532Z,97936.06
2023-02-11T02:44:32.047Z,97929.13
2023-02-11T02:46:58.939Z,97931.13
2023-02-11T02:49:25.311Z,97927.81
2023-02-11T02:52:09.940Z,97923.38
2023-02-11T02:54:54.709Z,97926.03
2023-02-11T02:57:23.670Z,97922.59
2023-02-11T03:00:09.169Z,97925.19
2023-02-11T03:02:42.453Z,97924.97
2023-02-11T03:05:28.051Z,97915.31
2023-02-11T03:08:00.610Z,97910.72
2023-02-11T03:10:30.298Z,97904.03
2023-02-11T03:12:57.553Z,97894.59
2023-02-11T03:15:27.478Z,97906.13
2023-02-11T03:17:58.763Z,97914.38
2023-02-11T03:20:27.852Z,97903.59
2023-02-11T03:22:59.122Z,97899.97
2023-02-11T03:25:32.257Z,97893.97
2023-02-11T03:28:06.661Z,97900.81
2023-02-11T03:30:40.436Z,97908.09
2023-02-11T03:33:25.183Z,97908.50
2023-02-11T03:35:57.662Z,97907.06
2023-02-11T03:38:31.182Z,97913.00
2023-02-11T03:40:59.664Z,97905.53
2023-02-11T03:43:57.370Z,97895.94
2023-02-11T03:46:38.750Z,97905.28
2023-02-11T03:49:13.347Z,97902.94
2023-02-11T03:51:40.385Z,97897.22
2023-02-11T03:54:11.817Z,97904.31
2023-02-11T03:56:47.409Z,97903.75
2023-02-11T03:59:13.773Z,97911.50
2023-02-11T04:01:40.214Z,97915.28
2023-02-11T04:04:07.179Z,97922.75
2023-02-11T04:06:33.516Z,97933.94
2023-02-11T04:08:59.882Z,97929.69
2023-02-11T04:11:26.759Z,97937.44
2023-02-11T04:13:53.150Z,97932.84
2023-02-11T04:16:19.705Z,97941.31
2023-02-11T04:18:46.423Z,97937.94
2023-02-11T04:21:12.800Z,97936.34
2023-02-11T04:23:39.135Z,97925.41
2023-02-11T04:26:06.516Z,97926.91
2023-02-11T04:28:32.943Z,97939.75
2023-02-11T04:30:59.342Z,97928.47
2023-02-11T04:33:26.336Z,97937.72
2023-02-11T04:35:52.833Z,97930.06
2023-02-11T04:38:19.253Z,97925.03
2023-02-11T04:40:46.165Z,97934.97
2023-02-11T04:43:12.526Z,97929.00
2023-02-11T04:45:38.900Z,97925.97
2023-02-11T04:48:05.688Z,97931.59
2023-02-11T04:50:35.307Z,97935.78
2023-02-11T04:53:01.686Z,97937.34
2023-02-11T04:55:28.012Z,97942.22
2023-02-11T04:57:55.672Z,97946.56
2023-02-11T05:00:22.181Z,97936.63
2023-02-11T05:02:48.520Z,97938.72
2023-02-11T05:05:15.284Z,97935.66
2023-02-11T05:07:41.649Z,97917.66
2023-02-11T05:10:08.282Z,97915.22
2023-02-11T05:12:35.130Z,97916.34
2023-02-11T05:15:01.485Z,97912.38
2023-02-11T05:17:27.907Z,97917.63
2023-02-11T05:19:54.600Z,97904.84
2023-02-11T05:22:21.925Z,97900.84
2023-02-11T05:24:48.321Z,97900.22
2023-02-11T05:27:15.177Z,97901.97
2023-02-11T05:29:41.497Z,97899.78
2023-02-11T05:32:08.961Z,97897.00
2023-02-11T05:34:36.764Z,97890.16
2023-02-11T05:37:03.304Z,97887.56
2023-02-11T05:39:29.649Z,97888.31
2023-02-11T05:41:56.776Z,97872.78
2023-02-11T05:44:23.206Z,97860.38
2023-02-11T05:46:49.621Z,97863.91
2023-02-11T05:49:17.626Z,97873.84
2023-02-11T05:51:44.010Z,97877.34
2023-02-11T05:54:10.599Z,97879.09
2023-02-11T05:56:37.369Z,97882.84
2023-02-11T05:59:03.756Z,97888.25
2023-02-11T06:01:30.227Z,97897.44
2023-02-11T06:03:57.210Z,97885.44
2023-02-11T06:06:25.161Z,97897.63
2023-02-11T06:08:51.674Z,97894.41
2023-02-11T06:11:18.926Z,97884.22
2023-02-11T06:13:45.279Z,97888.34
2023-02-11T06:16:11.696Z,97886.16
2023-02-11T06:18:38.434Z,97873.06
2023-02-11T06:21:11.692Z,97873.28
2023-02-11T06:23:39.322Z,97867.13
2023-02-11T06:26:08.709Z,97856.78
2023-02-11T06:28:35.835Z,97861.31
2023-02-11T06:31:07.058Z,97867.06
2023-02-11T06:33:34.888Z,97875.59
2023-02-11T06:36:02.049Z,97899.22
2023-02-11T06:38:28.721Z,97888.81
2023-02-11T06:40:55.046Z,97893.31
2023-02-11T06:43:21.505Z,97894.56
2023-02-11T06:45:54.115Z,97899.91
2023-02-11T06:48:20.890Z,97901.94
2023-02-11T06:50:47.526Z,97910.97
2023-02-11T06:53:14.318Z,97905.94
2023-02-11T06:55:40.646Z,97904.75
2023-02-11T06:58:06.993Z,97906.75
2023-02-11T07:00:33.753Z,97907.56
2023-02-11T07:03:00.175Z,97904.91
2023-02-11T07:05:27.503Z,97912.91
2023-02-11T07:07:54.306Z,97911.81
2023-02-11T07:10:20.704Z,97897.88
2023-02-11T07:12:47.041Z,97898.16
2023-02-11T07:15:13.690Z,97908.13
2023-02-11T07:17:40.027Z,97899.69
2023-02-11T07:20:06.724Z,97893.59
2023-02-11T07:22:35.076Z,97891.84
2023-02-11T07:25:01.401Z,97877.25
2023-02-11T07:27:27.754Z,97879.56
2023-02-11T07:29:54.460Z,97878.44
2023-02-11T07:32:21.701Z,97869.69
2023-02-11T07:34:48.560Z,97871.50
2023-02-11T07:37:15.626Z,97871.63
2023-02-11T07:39:41.929Z,97863.75
2023-02-11T07:42:08.375Z,97871.09
2023-02-11T07:44:35.400Z,97865.78
2023-02-11T07:47:01.806Z,97871.91
2023-02-11T07:49:28.494Z,97859.19
2023-02-11T07:51:55.366Z,97859.88
2023-02-11T07:54:21.946Z,97865.50
2023-02-11T07:56:48.275Z,97872.38
2023-02-11T07:59:14.996Z,97894.47
2023-02-11T08:01:41.395Z,97897.13
2023-02-11T08:04:07.770Z,97916.00
2023-02-11T08:06:35.598Z,97912.78
2023-02-11T08:09:07.699Z,97916.63
2023-02-11T08:11:34.584Z,97900.66
2023-02-11T08:14:01.716Z,97908.19
2023-02-11T08:16:35.612Z,97900.22
2023-02-11T08:19:04.950Z,97907.81
2023-02-11T08:21:32.762Z,97897.44
2023-02-11T08:24:01.329Z,97895.28
2023-02-11T08:26:29.316Z,97884.63
2023-02-11T08:28:57.177Z,97888.25
2023-02-11T08:31:37.252Z,97885.44
2023-02-11T08:34:03.869Z,97895.53
2023-02-11T08:36:36.093Z,97889.31
2023-02-11T08:39:17.960Z,97898.44
2023-02-11T08:41:46.802Z,97909.13
2023-02-11T08:44:13.689Z,97905.56
2023-02-11T08:46:40.205Z,97904.78
2023-02-11T08:49:06.645Z,97904.16
2023-02-11T08:51:33.714Z,97902.13
2023-02-11T08:54:00.856Z,97889.81
2023-02-11T08:56:28.424Z,97894.78
2023-02-11T08:58:55.016Z,97888.38
2023-02-11T09:01:23.877Z,97888.25
2023-02-11T09:03:51.204Z,97888.88
2023-02-11T09:06:18.676Z,97883.91
2023-02-11T09:08:48.997Z,97873.59
2023-02-11T09:11:16.702Z,97889.88
2023-02-11T09:13:44.113Z,97869.53
2023-02-11T09:16:21.529Z,97860.38
2023-02-11T09:18:48.136Z,97859.13
2023-02-11T09:21:15.936Z,97860.50
2023-02-11T09:23:44.838Z,97870.78
2023-02-11T09:26:15.052Z,97883.53
2023-02-11T09:28:41.448Z,97865.66
2023-02-11T09:31:12.543Z,97857.91
2023-02-11T09:33:42.104Z,97849.13
2023-02-11T09:36:09.234Z,97857.25
2023-02-11T09:38:35.640Z,97859.31
2023-02-11T09:41:07.473Z,97862.63
2023-02-11T09:43:44.697Z,97871.88
2023-02-11T09:46:16.114Z,97853.56
2023-02-11T09:48:45.484Z,97859.69
2023-02-11T09:51:28.088Z,97859.97
2023-02-11T09:54:03.148Z,97860.03
2023-02-11T09:56:30.959Z,97849.09
2023-02-11T09:58:57.693Z,97852.78
2023-02-11T10:01:34.699Z,97850.00
2023-02-11T10:04:13.833Z,97850.38
2023-02-11T10:06:48.469Z,97840.47
2023-02-11T10:09:22.022Z,97856.19
2023-02-11T10:12:10.338Z,97844.28
2023-02-11T10:14:57.964Z,97843.81
2023-02-11T10:17:52.587Z,97854.84
2023-02-11T10:20:57.427Z,97860.47
2023-02-11T10:23:28.852Z,97857.13
2023-02-11T10:25:57.358Z,97858.22
2023-02-11T10:28:31.628Z,97857.63
2023-02-11T10:31:05.477Z,97856.16
2023-02-11T10:33:44.915Z,97857.88
2023-02-11T10:36:13.638Z,97851.94
2023-02-11T10:38:40.305Z,97847.91
2023-02-11T10:41:07.070Z,97841.16
2023-02-11T10:43:34.998Z,97834.19
2023-02-11T10:46:05.271Z,97835.16
2023-02-11T10:48:53.242Z,97834.38
2023-02-11T10:51:24.407Z,97827.56
2023-02-11T10:54:14.288Z,97820.91
2023-02-11T10:56:53.946Z,97822.13
2023-02-11T10:59:25.934Z,97823.31
2023-02-11T11:02:24.963Z,97824.50
2023-02-11T11:04:56.801Z,97824.72
2023-02-11T11:07:27.742Z,97821.78
2023-02-11T11:10:07.460Z,97817.91
2023-02-11T11:12:35.301Z,97814.38
2023-02-11T11:15:16.327Z,97808.03
2023-02-11T11:17:42.993Z,97816.09
2023-02-11T11:20:23.552Z,97822.22
2023-02-11T11:22:53.393Z,97812.56
2023-02-11T11:25:30.355Z,97807.84
2023-02-11T11:28:00.925Z,97801.53
2023-02-11T11:30:34.221Z,97792.22
2023-02-11T11:33:02.512Z,97796.69
2023-02-11T11:35:32.852Z,97798.78
2023-02-11T11:38:03.303Z,97797.69
2023-02-11T11:40:32.281Z,97800.91
2023-02-11T11:43:14.332Z,97807.13
2023-02-11T11:45:58.653Z,97802.84
2023-02-11T11:48:39.706Z,97802.47
2023-02-11T11:51:10.471Z,97792.09
2023-02-11T11:53:51.397Z,97800.53
2023-02-11T11:56:29.933Z,97788.63
2023-02-11T11:58:57.105Z,97797.50
2023-02-11T12:01:44.490Z,97786.81
2023-02-11T12:04:48.751Z,97781.13
2023-02-11T12:07:45.346Z,97782.53
2023-02-11T12:10:14.438Z,97777.81
2023-02-11T12:12:53.339Z,97773.06
2023-02-11T12:15:32.242Z,97767.38
2023-02-11T12:18:17.818Z,97765.56
2023-02-11T12:21:15.627Z,97771.09
2023-02-11T12:23:57.335Z,97777.84
2023-02-11T12:26:36.167Z,97776.44
2023-02-11T12:29:14.132Z,97773.78
2023-02-11T12:32:14.168Z,97775.03
2023-02-11T12:34:50.959Z,97763.13
2023-02-11T12:37:21.001Z,97772.69
2023-02-11T12:40:15.516Z,97763.69
2023-02-11T12:43:18.783Z,97759.72
2023-02-11T12:46:10.464Z,97757.22
2023-02-11T12:48:48.666Z,97765.38
2023-02-11T12:51:40.527Z,97759.19
2023-02-11T12:54:31.828Z,97758.81
2023-02-11T12:57:04.428Z,97753.97
2023-02-11T12:59:38.652Z,97760.09
2023-02-11T13:02:34.823Z,97751.63
2023-02-11T13:05:22.005Z,97760.25
2023-02-11T13:07:52.217Z,97742.59
2023-02-11T13:10:29.942Z,97746.81
2023-02-11T13:13:16.538Z,97740.56
2023-02-11T13:15:47.209Z,97734.56
2023-02-11T13:18:19.019Z,97740.66
2023-02-11T13:20:53.870Z,97735.56
2023-02-11T13:23:41.414Z,97739.13
2023-02-11T13:26:21.330Z,97732.97
2023-02-11T13:29:03.031Z,97734.16
2023-02-11T13:31:30.194Z,97737.84
2023-02-11T13:33:56.591Z,97739.25
2023-02-11T13:36:28.455Z,97747.19
2023-02-11T13:38:58.626Z,97737.56
2023-02-11T13:41:41.650Z,97739.81
2023-02-11T13:44:11.581Z,97737.28
2023-02-11T13:46:53.027Z,97741.16
2023-02-11T13:49:28.378Z,97722.78
2023-02-11T13:51:56.626Z,97736.28
2023-02-11T13:54:31.129Z,97737.38
2023-02-11T13:57:16.043Z,97727.16
2023-02-11T13:59:42.737Z,97733.56
2023-02-11T14:02:48.329Z,97731.00
2023-02-11T14:05:50.102Z,97726.47
2023-02-11T14:08:39.584Z,97734.16
2023-02-11T14:11:13.206Z,97729.31
2023-02-11T14:13:48.512Z,97737.25
2023-02-11T14:16:36.399Z,97726.34
2023-02-11T14:19:05.977Z,97732.75
2023-02-11T14:21:36.717Z,97733.94
2023-02-11T14:24:04.748Z,97732.09
2023-02-11T14:26:56.398Z,97726.75
2023-02-11T14:29:28.794Z,97722.56
2023-02-11T14:32:06.167Z,97729.75
2023-02-11T14:34:46.601Z,97725.44
2023-02-11T14:37:19.420Z,97731.84
2023-02-11T14:40:10.518Z,97734.00
2023-02-11T14:42:38.604Z,97732.69
2023-02-11T14:45:09.417Z,97732.03
2023-02-11T14:47:50.449Z,97724.50
2023-02-11T14:50:42.910Z,97726.31
2023-02-11T14:53:19.426Z,97719.59
2023-02-11T14:55:54.682Z,97717.41
2023-02-11T14:58:26.535Z,97724.59
2023-02-11T15:01:01.132Z,97727.41
2023-02-11T15:03:40.683Z,97730.59
2023-02-11T15:06:17.207Z,97729.72
2023-02-11T15:08:55.027Z,97731.06
2023-02-11T15:11:25.708Z,97722.97
2023-02-11T15:13:55.326Z,97735.41
2023-02-11T15:16:25.714Z,97747.09
2023-02-11T15:18:55.941Z,97739.34
2023-02-11T15:21:29.742Z,97746.91
2023-02-11T15:24:08.745Z,97742.34
2023-02-11T15:26:35.605Z,97758.88
2023-02-11T15:29:02.006Z,97771.41
2023-02-11T15:31:29.289Z,97761.69
2023-02-11T15:33:55.978Z,97773.06
2023-02-11T15:36:28.507Z,97777.78
2023-02-11T15:39:19.707Z,97774.75
2023-02-11T15:41:46.074Z,97772.78
2023-02-11T15:44:32.907Z,97773.75
2023-02-11T15:46:59.620Z,97775.97
2023-02-11T15:49:26.941Z,97775.41
2023-02-11T15:51:56.070Z,97772.66
2023-02-11T15:54:27.250Z,97771.00
2023-02-11T15:56:59.703Z,97775.06
2023-02-11T15:59:30.622Z,97775.31
2023-02-11T16:02:05.750Z,97767.28
2023-02-11T16:04:32.209Z,97776.31
2023-02-11T16:06:58.726Z,97774.34
2023-02-11T16:09:32.257Z,97780.44
2023-02-11T16:12:02.016Z,97784.28
2023-02-11T16:14:31.368Z,97778.59
2023-02-11T16:17:13.714Z,97779.94
2023-02-11T16:19:46.733Z,97785.03
2023-02-11T16:22:20.160Z,97791.72
2023-02-11T16:24:48.402Z,97800.94
2023-02-11T16:27:34.303Z,97798.59
2023-02-11T16:30:00.764Z,97801.22
2023-02-11T16:32:29.038Z,97819.06
2023-02-11T16:34:58.213Z,97808.97
2023-02-11T16:37:25.620Z,97820.81
2023-02-11T16:39:58.588Z,97822.50
2023-02-11T16:42:25.334Z,97828.13
2023-02-11T16:44:51.736Z,97829.81
2023-02-11T16:47:26.810Z,97825.31
2023-02-11T16:49:55.419Z,97823.66
2023-02-11T16:52:22.300Z,97841.44
2023-02-11T16:54:49.726Z,97836.09
2023-02-11T16:57:18.411Z,97836.34
2023-02-11T16:59:45.477Z,97828.22
2023-02-11T17:02:30.461Z,97838.28
2023-02-11T17:05:00.802Z,97846.50
2023-02-11T17:07:27.887Z,97852.59
2023-02-11T17:09:54.745Z,97859.50
2023-02-11T17:12:21.774Z,97860.09
2023-02-11T17:14:48.083Z,97857.28
2023-02-11T17:17:14.729Z,97855.03
2023-02-11T17:19:41.051Z,97854.41
2023-02-11T17:22:07.549Z,97867.63
2023-02-11T17:24:34.395Z,97865.72
2023-02-11T17:27:00.827Z,97867.88
2023-02-11T17:29:27.299Z,97866.72
2023-02-11T17:31:54.422Z,97868.13
2023-02-11T17:34:21.751Z,97873.38
2023-02-11T17:36:48.534Z,97874.06
2023-02-11T17:39:15.091Z,97876.94
2023-02-11T17:41:41.978Z,97869.78
2023-02-11T17:44:12.095Z,97865.84
2023-02-11T17:46:38.771Z,97872.66
2023-02-11T17:49:05.246Z,97865.72
2023-02-11T17:51:33.321Z,97875.03
2023-02-11T17:54:01.838Z,97878.25
2023-02-11T17:56:29.939Z,97881.81
2023-02-11T17:58:56.283Z,97883.59
2023-02-11T18:01:23.394Z,97891.56
2023-02-11T18:03:49.809Z,97880.97
2023-02-11T18:06:16.272Z,97883.63
2023-02-11T18:08:43.003Z,97880.97
2023-02-11T18:11:12.139Z,97882.63
2023-02-11T18:13:39.048Z,97887.88
2023-02-11T18:16:08.205Z,97890.72
2023-02-11T18:18:35.132Z,97891.34
2023-02-11T18:21:08.851Z,97893.63
2023-02-11T18:23:35.533Z,97894.91
2023-02-11T18:26:02.903Z,97901.47
2023-02-11T18:28:29.719Z,97890.78
2023-02-11T18:30:58.463Z,97897.66
2023-02-11T18:33:26.437Z,97890.06
2023-02-11T18:35:53.403Z,97897.44
2023-02-11T18:38:19.866Z,97899.22
2023-02-11T18:40:47.964Z,97906.22
2023-02-11T18:43:14.395Z,97909.81
2023-02-11T18:45:44.940Z,97907.69
2023-02-11T18:48:12.018Z,97894.31
2023-02-11T18:50:45.541Z,97896.38
2023-02-11T18:53:14.049Z,97895.41
2023-02-11T18:55:42.626Z,97900.78
2023-02-11T18:58:09.549Z,97901.25
2023-02-11T19:00:36.965Z,97904.81
2023-02-11T19:03:03.438Z,97898.50
2023-02-11T19:05:33.443Z,97905.06
2023-02-11T19:08:00.564Z,97901.25
2023-02-11T19:10:27.670Z,97904.56
2023-02-11T19:12:59.244Z,97907.06
2023-02-11T19:15:26.103Z,97902.66
2023-02-11T19:17:52.564Z,97912.31
2023-02-11T19:20:19.351Z,97908.13
2023-02-11T19:22:45.754Z,97919.94
2023-02-11T19:25:13.066Z,97906.47
2023-02-11T19:27:42.134Z,97905.97
2023-02-11T19:30:10.125Z,97890.72
2023-02-11T19:32:36.547Z,97901.81
2023-02-11T19:35:04.155Z,97894.78
2023-02-11T19:37:30.518Z,97899.78
2023-02-11T19:39:56.895Z,97898.25
2023-02-11T19:42:25.310Z,97899.22
2023-02-11T19:44:53.492Z,97900.72
2023-02-11T19:47:19.954Z,97903.69
2023-02-11T19:49:46.775Z,97894.19
2023-02-11T19:52:13.096Z,97896.91
2023-02-11T19:54:39.553Z,97890.22
2023-02-11T19:57:06.069Z,97891.41
2023-02-11T19:59:32.409Z,97902.38
2023-02-11T20:01:58.727Z,97897.56
2023-02-11T20:04:25.144Z,97902.31
2023-02-11T20:06:51.562Z,97895.09
2023-02-11T20:09:18.505Z,97902.09
2023-02-11T20:11:44.886Z,97906.50
2023-02-11T20:14:15.097Z,97911.28
2023-02-11T20:16:48.791Z,97905.44
2023-02-11T20:19:21.219Z,97904.69
2023-02-11T20:21:49.516Z,97900.25
2023-02-11T20:24:17.872Z,97904.16
2023-02-11T20:26:45.701Z,97906.88
2023-02-11T20:29:12.683Z,97912.13
2023-02-11T20:31:39.610Z,97911.41
2023-02-11T20:34:06.065Z,97919.25
2023-02-11T20:36:35.540Z,97914.84
2023-02-11T20:39:03.702Z,97920.06
2023-02-11T20:41:35.514Z,97925.81
2023-02-11T20:44:05.677Z,97921.97
2023-02-11T20:46:33.293Z,97916.00
2023-02-11T20:49:00.616Z,97922.69
2023-02-11T20:51:31.796Z,97929.84
2023-02-11T20:53:58.610Z,97922.13
2023-02-11T20:56:30.614Z,97921.59
2023-02-11T20:58:58.858Z,97927.31
2023-02-11T21:01:37.013Z,97919.38
2023-02-11T21:04:10.983Z,97928.41
2023-02-11T21:06:40.111Z,97929.47
2023-02-11T21:09:08.880Z,97936.00
2023-02-11T21:11:35.416Z,97936.00
2023-02-11T21:14:02.322Z,97934.97
2023-02-11T21:16:28.980Z,97941.16
2023-02-11T21:18:55.667Z,97946.34
2023-02-11T21:21:22.630Z,97944.66
2023-02-11T21:23:49.195Z,97951.81
2023-02-11T21:26:17.102Z,97951.34
2023-02-11T21:28:44.321Z,97954.00
2023-02-11T21:31:19.297Z,97963.19
2023-02-11T21:33:46.063Z,97955.81
2023-02-11T21:36:12.494Z,97964.72
2023-02-11T21:38:38.833Z,97969.94
2023-02-11T21:41:06.081Z,97969.69
2023-02-11T21:43:33.717Z,97974.63
2023-02-11T21:46:00.622Z,97975.09
2023-02-11T21:48:27.108Z,97966.81
2023-02-11T21:50:54.249Z,97973.97
2023-02-11T21:53:20.633Z,97967.41
2023-02-11T21:55:47.057Z,97963.59
2023-02-11T21:58:14.452Z,97965.28
2023-02-11T22:00:40.969Z,97955.78
2023-02-11T22:03:07.388Z,97958.16
2023-02-11T22:05:34.168Z,97964.44
2023-02-11T22:08:00.528Z,97975.75
2023-02-11T22:10:26.899Z,97978.59
2023-02-11T22:12:53.262Z,97971.09
2023-02-11T22:15:19.754Z,97978.41
2023-02-11T22:17:46.093Z,97974.16
2023-02-11T22:20:12.605Z,97978.06
2023-02-11T22:22:38.919Z,97970.81
2023-02-11T22:25:06.030Z,97968.69
2023-02-11T22:27:32.378Z,97965.59
2023-02-11T22:29:58.719Z,97981.66
2023-02-11T22:32:25.507Z,97970.81
2023-02-11T22:34:53.385Z,97968.19
2023-02-11T22:37:20.864Z,97964.38
2023-02-11T22:39:47.339Z,97960.81
2023-02-11T22:42:13.736Z,97958.78
2023-02-11T22:44:40.407Z,97958.78
2023-02-11T22:47:07.028Z,97964.41
2023-02-11T22:49:33.909Z,97965.13
2023-02-11T22:52:00.327Z,97962.25
2023-02-11T22:54:26.706Z,97966.56
2023-02-11T22:56:53.882Z,97962.75
2023-02-11T22:59:20.794Z,97964.88
2023-02-11T23:01:47.889Z,97965.09
2023-02-11T23:04:16.962Z,97964.75
2023-02-11T23:06:43.896Z,97971.09
2023-02-11T23:09:12.347Z,97970.13
2023-02-11T23:11:39.665Z,97965.72
2023-02-11T23:14:08.432Z,97977.16
2023-02-11T23:16:34.973Z,97971.53
2023-02-11T23:19:05.407Z,97978.31
2023-02-11T23:21:33.748Z,97970.34
2023-02-11T23:24:05.438Z,97973.09
2023-02-11T23:26:31.804Z,97979.63
2023-02-11T23:28:59.552Z,97974.28
2023-02-11T23:31:34.344Z,97972.16
2023-02-11T23:34:01.200Z,97964.97
2023-02-11T23:36:28.651Z,97966.28
2023-02-11T23:38:55.348Z,97959.63
2023-02-11T23:41:22.216Z,97962.25
2023-02-11T23:43:51.574Z,97965.56
2023-02-11T23:46:18.630Z,97960.09
2023-02-11T23:48:45.270Z,97964.16
2023-02-11T23:51:12.022Z,97967.13
2023-02-11T23:53:38.696Z,97974.16
2023-02-11T23:56:15.732Z,97975.81
2023-02-11T23:58:42.226Z,97980.47
